Terminal Aerodrome Forecast
Issued by NWS

Home | Current Version | Previous Version | Text Only | Print | Product List | Glossary On
Versions: 1 2 3 4 5 6 7 8 9 10 11 12 13
000
FTUS46 KSGX 282300
TAFSNA
TAF
KSNA 282340Z 2900/2924 VRB04KT P6SM SKC
     FM291200 VRB03KT P6SM SCT008
     FM291600 VRB04KT P6SM SKC
     FM292000 25008KT P6SM SKC=

USA.gov is the U.S. government's official web portal to all federal, state and local government web resources and services.